Time;durP1;ratioP1;P1;durP2;ratioP2;P2;SDS_P1;SDS_P2;PMS_P1;PMS_P2;Temp;Humidity;BMP_temperature;BMP_pressure;BME280_temperature;BME280_humidity;BME280_pressure;Samples;Min_cycle;Max_cycle;Signal;HPM_P1;HPM_P2
2021/12/04 00:00:47;;;;;;;71.63;35.90;;;;;;;;;;5024408;28;20045;-77
2021/12/04 00:03:13;;;;;;;65.53;34.72;;;;;;;;;;5043721;28;20129;-76
2021/12/04 00:05:50;;;;;;;72.78;33.85;;;;;;;;;;5039831;28;20083;-77
2021/12/04 00:08:16;;;;;;;64.13;34.30;;;;;;;;;;5041644;28;20084;-76
2021/12/04 00:10:42;;;;;;;66.78;33.22;;;;;;;;;;5042418;28;20130;-77
2021/12/04 00:13:08;;;;;;;70.88;34.50;;;;;;;;;;5043887;28;20512;-77
2021/12/04 00:15:35;;;;;;;59.80;29.50;;;;;;;;;;5041347;28;20084;-76
2021/12/04 00:18:01;;;;;;;53.35;27.52;;;;;;;;;;5043809;28;20033;-76
2021/12/04 00:20:30;;;;;;;61.47;31.83;;;;;;;;;;5042968;28;20072;-78
2021/12/04 00:22:59;;;;;;;63.13;32.42;;;;;;;;;;5025888;28;20048;-76
2021/12/04 00:25:25;;;;;;;63.08;32.70;;;;;;;;;;5045773;28;20076;-78
2021/12/04 00:27:57;;;;;;;58.13;30.38;;;;;;;;;;5044709;28;20040;-78
2021/12/04 00:30:25;;;;;;;49.55;27.52;;;;;;;;;;5045569;28;20048;-78
2021/12/04 00:32:58;;;;;;;54.05;28.88;;;;;;;;;;5047006;28;20497;-80
2021/12/04 00:38:08;;;;;;;50.78;26.60;;;;;;;;;;5046236;28;20612;-78
2021/12/04 00:51:19;;;;;;;64.35;31.77;;;;;;;;;;5045033;28;20044;-77
2021/12/04 00:53:46;;;;;;;63.38;31.42;;;;;;;;;;5030993;28;20454;-80
2021/12/04 00:56:12;;;;;;;69.13;32.22;;;;;;;;;;5061853;28;20124;-77
2021/12/04 00:58:38;;;;;;;60.50;30.35;;;;;;;;;;5056751;28;20037;-77
2021/12/04 01:01:04;;;;;;;54.55;28.23;;;;;;;;;;5044738;28;20045;-77
2021/12/04 01:03:30;;;;;;;57.85;27.40;;;;;;;;;;5028814;28;20037;-77
2021/12/04 01:05:56;;;;;;;66.63;32.45;;;;;;;;;;5045723;28;20103;-77
2021/12/04 01:08:22;;;;;;;63.58;30.42;;;;;;;;;;5046712;28;20033;-79
2021/12/04 01:10:48;;;;;;;74.68;34.13;;;;;;;;;;5044188;28;20389;-80
2021/12/04 01:13:14;;;;;;;59.28;29.27;;;;;;;;;;5044387;28;20053;-78
2021/12/04 01:15:42;;;;;;;74.32;33.25;;;;;;;;;;5042012;28;20048;-77
2021/12/04 01:18:09;;;;;;;70.82;31.63;;;;;;;;;;5045862;28;20080;-80
2021/12/04 01:20:35;;;;;;;86.55;36.80;;;;;;;;;;5028586;28;20063;-78
2021/12/04 01:23:01;;;;;;;76.38;32.53;;;;;;;;;;5042972;28;20045;-78
2021/12/04 01:25:27;;;;;;;91.43;36.97;;;;;;;;;;5046644;28;20519;-79
2021/12/04 01:27:54;;;;;;;90.63;37.60;;;;;;;;;;5044456;28;20056;-78
2021/12/04 01:30:20;;;;;;;95.65;38.35;;;;;;;;;;5044366;28;20041;-77
2021/12/04 01:32:46;;;;;;;89.82;35.97;;;;;;;;;;5042771;28;20107;-77
2021/12/04 01:35:12;;;;;;;81.95;33.45;;;;;;;;;;5044879;28;20056;-77
2021/12/04 01:37:38;;;;;;;73.90;30.40;;;;;;;;;;5043901;28;20128;-78
2021/12/04 01:40:05;;;;;;;93.53;39.15;;;;;;;;;;5045679;28;20052;-78
2021/12/04 01:42:35;;;;;;;81.93;33.70;;;;;;;;;;5046318;28;20037;-77
2021/12/04 01:45:01;;;;;;;83.65;31.02;;;;;;;;;;5043896;28;20045;-77
2021/12/04 01:47:27;;;;;;;75.95;31.48;;;;;;;;;;5033651;28;20037;-79
2021/12/04 01:49:54;;;;;;;92.28;36.70;;;;;;;;;;5044672;28;20795;-77
2021/12/04 01:52:21;;;;;;;104.00;37.47;;;;;;;;;;5045658;28;20831;-78
2021/12/04 01:54:50;;;;;;;84.35;34.25;;;;;;;;;;5047364;28;20052;-79
2021/12/04 01:57:16;;;;;;;85.18;33.80;;;;;;;;;;5040729;28;20054;-78
2021/12/04 01:59:43;;;;;;;89.03;34.03;;;;;;;;;;5049207;28;20033;-77
2021/12/04 02:02:09;;;;;;;92.85;36.28;;;;;;;;;;5047043;28;20498;-76
2021/12/04 02:04:35;;;;;;;93.80;34.70;;;;;;;;;;5050283;28;20049;-77
2021/12/04 02:07:04;;;;;;;85.70;32.08;;;;;;;;;;5047496;28;20116;-77
2021/12/04 02:09:34;;;;;;;96.20;34.03;;;;;;;;;;5049041;28;20071;-77
2021/12/04 02:12:03;;;;;;;90.43;34.40;;;;;;;;;;5031098;28;20051;-77
2021/12/04 02:14:30;;;;;;;88.47;34.17;;;;;;;;;;5049430;28;20037;-78
2021/12/04 02:16:56;;;;;;;88.85;33.30;;;;;;;;;;5048507;28;20130;-79
2021/12/04 02:19:22;;;;;;;90.38;33.10;;;;;;;;;;5046281;28;20068;-79
2021/12/04 02:21:48;;;;;;;101.00;36.72;;;;;;;;;;5048724;28;20037;-78
2021/12/04 02:24:14;;;;;;;104.55;37.88;;;;;;;;;;5047490;28;20122;-77
2021/12/04 02:26:40;;;;;;;77.72;30.50;;;;;;;;;;5048592;28;20068;-78
2021/12/04 02:29:06;;;;;;;97.88;35.90;;;;;;;;;;5046123;28;20052;-77
2021/12/04 02:31:32;;;;;;;72.18;29.90;;;;;;;;;;5047408;28;20032;-79
2021/12/04 02:33:58;;;;;;;84.75;34.08;;;;;;;;;;5047814;28;20122;-77
2021/12/04 02:36:24;;;;;;;97.90;36.08;;;;;;;;;;5048106;28;20052;-77
2021/12/04 02:38:53;;;;;;;104.65;37.10;;;;;;;;;;5048419;28;20390;-79
2021/12/04 02:41:20;;;;;;;88.75;34.13;;;;;;;;;;5046986;28;20041;-78
2021/12/04 02:43:47;;;;;;;94.30;34.25;;;;;;;;;;5047287;28;20082;-77
2021/12/04 02:46:17;;;;;;;74.10;27.50;;;;;;;;;;5045684;28;20114;-77
2021/12/04 02:48:44;;;;;;;81.15;31.65;;;;;;;;;;5047406;28;20419;-78
2021/12/04 02:51:11;;;;;;;86.25;30.92;;;;;;;;;;5047698;28;20138;-78
2021/12/04 02:53:37;;;;;;;88.60;32.88;;;;;;;;;;5047701;28;20411;-77
2021/12/04 02:56:05;;;;;;;92.50;35.17;;;;;;;;;;5048643;28;20504;-79
2021/12/04 02:58:32;;;;;;;96.10;35.75;;;;;;;;;;5046578;28;20052;-76
2021/12/04 03:00:58;;;;;;;105.82;37.95;;;;;;;;;;5046478;28;20045;-77
2021/12/04 03:03:24;;;;;;;122.57;38.63;;;;;;;;;;5046915;28;20041;-76
2021/12/04 03:05:51;;;;;;;132.60;40.17;;;;;;;;;;5046448;28;20039;-78
2021/12/04 03:08:18;;;;;;;85.72;28.88;;;;;;;;;;5044239;28;20407;-78
2021/12/04 03:10:45;;;;;;;130.82;42.58;;;;;;;;;;5048855;28;20409;-78
2021/12/04 03:13:11;;;;;;;98.38;31.85;;;;;;;;;;5048088;28;20041;-77
2021/12/04 03:15:38;;;;;;;91.72;31.52;;;;;;;;;;5047025;28;20079;-75
2021/12/04 03:18:05;;;;;;;117.90;34.65;;;;;;;;;;5048186;28;20455;-78
2021/12/04 03:20:32;;;;;;;111.53;32.30;;;;;;;;;;5047046;28;20052;-78
2021/12/04 03:23:01;;;;;;;107.60;34.72;;;;;;;;;;5047917;28;20084;-78
2021/12/04 03:25:28;;;;;;;100.65;31.33;;;;;;;;;;5045463;28;20119;-77
2021/12/04 03:27:54;;;;;;;117.30;34.50;;;;;;;;;;5048649;28;20061;-78
2021/12/04 03:30:46;;;;;;;108.88;31.33;;;;;;;;;;5045497;28;20060;-78
2021/12/04 03:41:03;;;;;;;125.90;33.70;;;;;;;;;;5046214;28;20531;-78
2021/12/04 03:43:30;;;;;;;124.97;32.55;;;;;;;;;;5046965;28;20052;-81
2021/12/04 03:46:01;;;;;;;133.73;34.90;;;;;;;;;;5044656;28;20116;-78
2021/12/04 03:50:58;;;;;;;87.32;26.38;;;;;;;;;;5045626;28;20099;-77
2021/12/04 03:53:24;;;;;;;110.78;30.35;;;;;;;;;;5030159;28;20041;-77
2021/12/04 03:55:50;;;;;;;98.40;27.88;;;;;;;;;;5044898;28;20041;-77
2021/12/04 03:58:17;;;;;;;89.90;27.30;;;;;;;;;;5029683;28;20384;-77
2021/12/04 04:00:43;;;;;;;90.65;30.30;;;;;;;;;;5046915;28;20381;-81
2021/12/04 04:03:09;;;;;;;81.78;28.15;;;;;;;;;;5042619;28;20033;-80
2021/12/04 04:05:35;;;;;;;78.22;28.00;;;;;;;;;;5046573;28;20080;-79
2021/12/04 04:08:01;;;;;;;88.32;30.85;;;;;;;;;;5044001;28;20040;-81
2021/12/04 04:10:28;;;;;;;77.93;24.48;;;;;;;;;;5047694;28;20459;-80
2021/12/04 04:12:54;;;;;;;72.47;25.55;;;;;;;;;;5044793;28;20045;-80
2021/12/04 04:15:21;;;;;;;68.95;22.08;;;;;;;;;;5047067;28;20098;-79
2021/12/04 04:17:47;;;;;;;67.95;23.27;;;;;;;;;;5045972;28;20390;-80
2021/12/04 04:20:15;;;;;;;72.20;26.90;;;;;;;;;;5046389;28;20048;-81
2021/12/04 04:22:41;;;;;;;70.90;23.60;;;;;;;;;;5047420;28;20044;-80
2021/12/04 04:25:08;;;;;;;80.07;24.73;;;;;;;;;;5044788;28;20036;-80
2021/12/04 04:27:35;;;;;;;70.05;25.60;;;;;;;;;;5047368;28;20045;-81
2021/12/04 04:30:01;;;;;;;78.70;26.40;;;;;;;;;;5044516;28;20041;-80
2021/12/04 04:32:28;;;;;;;58.70;23.13;;;;;;;;;;5046137;28;20084;-80
2021/12/04 04:34:56;;;;;;;67.53;25.13;;;;;;;;;;5044756;28;20037;-80
2021/12/04 04:37:41;;;;;;;65.13;26.75;;;;;;;;;;5046177;28;20087;-80
2021/12/04 05:10:19;;;;;;;73.85;27.45;;;;;;;;;;4991179;28;20045;-80
2021/12/04 05:13:00;;;;;;;66.80;27.17;;;;;;;;;;5042761;28;20049;-80
2021/12/04 05:18:33;;;;;;;73.57;26.80;;;;;;;;;;5044034;28;20136;-81
2021/12/04 05:21:04;;;;;;;57.45;24.38;;;;;;;;;;5042937;28;20056;-80
2021/12/04 05:23:31;;;;;;;74.53;29.00;;;;;;;;;;5044221;28;20523;-80
2021/12/04 05:25:57;;;;;;;77.43;27.67;;;;;;;;;;5039651;28;20049;-80
2021/12/04 05:28:23;;;;;;;71.55;27.17;;;;;;;;;;5045600;28;20959;-81
2021/12/04 05:30:49;;;;;;;64.75;23.30;;;;;;;;;;5047965;28;20448;-81
2021/12/04 05:33:16;;;;;;;76.20;28.33;;;;;;;;;;5049461;28;20415;-80
2021/12/04 05:35:47;;;;;;;59.83;22.80;;;;;;;;;;5049139;28;20128;-81
2021/12/04 05:38:13;;;;;;;68.43;24.48;;;;;;;;;;5030481;28;20508;-80
2021/12/04 05:40:39;;;;;;;68.55;23.52;;;;;;;;;;5050093;28;20052;-81
2021/12/04 05:43:05;;;;;;;63.47;24.48;;;;;;;;;;5046864;28;20044;-80
2021/12/04 05:45:37;;;;;;;60.55;24.17;;;;;;;;;;5048239;28;20485;-80
2021/12/04 05:48:11;;;;;;;69.40;26.17;;;;;;;;;;5047497;28;20053;-80
2021/12/04 05:55:53;;;;;;;59.10;23.25;;;;;;;;;;5046921;28;20153;-80
2021/12/04 05:58:27;;;;;;;45.65;20.52;;;;;;;;;;5043806;28;20072;-81
2021/12/04 06:00:54;;;;;;;52.40;20.85;;;;;;;;;;5047877;28;20041;-81
2021/12/04 06:03:21;;;;;;;55.95;22.98;;;;;;;;;;5047594;28;20053;-80
2021/12/04 06:05:47;;;;;;;55.60;21.95;;;;;;;;;;5046307;28;20095;-79
2021/12/04 06:08:13;;;;;;;47.83;22.27;;;;;;;;;;5048228;28;20055;-80
2021/12/04 06:10:39;;;;;;;53.75;21.20;;;;;;;;;;5047173;28;20068;-81
2021/12/04 06:13:05;;;;;;;53.10;22.20;;;;;;;;;;5046022;28;20502;-81
2021/12/04 06:15:32;;;;;;;54.83;22.90;;;;;;;;;;5048414;28;20079;-81
2021/12/04 06:17:58;;;;;;;46.42;20.80;;;;;;;;;;5046769;28;20037;-81
2021/12/04 06:23:10;;;;;;;49.83;21.92;;;;;;;;;;5047388;28;20052;-81
2021/12/04 06:25:36;;;;;;;47.47;21.80;;;;;;;;;;5045879;28;20052;-80
2021/12/04 06:28:02;;;;;;;47.50;20.08;;;;;;;;;;5048347;28;20052;-80
2021/12/04 06:30:35;;;;;;;56.38;21.52;;;;;;;;;;5046910;28;20465;-81
2021/12/04 06:33:01;;;;;;;51.45;21.92;;;;;;;;;;5047068;28;20060;-80
2021/12/04 06:35:27;;;;;;;51.03;21.13;;;;;;;;;;5044849;28;20067;-80
2021/12/04 06:37:53;;;;;;;47.72;21.20;;;;;;;;;;5047902;28;20412;-80
2021/12/04 06:40:25;;;;;;;57.05;23.73;;;;;;;;;;5046951;28;20048;-81
2021/12/04 06:42:51;;;;;;;46.42;20.45;;;;;;;;;;5044303;28;20044;-80
2021/12/04 06:45:17;;;;;;;46.13;20.67;;;;;;;;;;5046569;28;20056;-81
2021/12/04 06:47:56;;;;;;;51.17;20.98;;;;;;;;;;5044239;28;20040;-81
2021/12/04 06:50:37;;;;;;;51.25;21.00;;;;;;;;;;5046264;28;20102;-81
2021/12/04 06:55:52;;;;;;;45.17;20.42;;;;;;;;;;5045648;28;20136;-80
2021/12/04 06:58:18;;;;;;;47.20;20.77;;;;;;;;;;5048013;28;20030;-81
2021/12/04 07:00:44;;;;;;;53.75;21.80;;;;;;;;;;5045910;28;20036;-80
2021/12/04 07:03:10;;;;;;;42.28;19.63;;;;;;;;;;5045973;28;20064;-80
2021/12/04 07:05:36;;;;;;;44.78;20.20;;;;;;;;;;5042015;28;20037;-80
2021/12/04 07:08:05;;;;;;;43.35;19.63;;;;;;;;;;5047242;28;20084;-79
2021/12/04 07:10:31;;;;;;;45.90;19.60;;;;;;;;;;5044578;28;20045;-80
2021/12/04 07:12:57;;;;;;;48.38;21.70;;;;;;;;;;5046302;28;20143;-80
2021/12/04 07:15:27;;;;;;;41.92;19.88;;;;;;;;;;5045338;28;20087;-80
2021/12/04 07:17:53;;;;;;;44.33;20.80;;;;;;;;;;5043152;28;20110;-80
2021/12/04 07:20:19;;;;;;;45.15;21.05;;;;;;;;;;5046465;28;20048;-80
2021/12/04 07:22:45;;;;;;;47.63;21.15;;;;;;;;;;5044180;28;20148;-79
2021/12/04 07:25:11;;;;;;;52.70;22.65;;;;;;;;;;5046686;28;20067;-80
2021/12/04 07:27:37;;;;;;;57.97;22.90;;;;;;;;;;5042832;28;20091;-80
2021/12/04 07:30:06;;;;;;;49.38;22.83;;;;;;;;;;5047432;28;20107;-79
2021/12/04 07:32:33;;;;;;;46.88;21.40;;;;;;;;;;5044971;28;20045;-82
2021/12/04 07:34:59;;;;;;;46.90;21.38;;;;;;;;;;5044261;28;20436;-80
2021/12/04 07:37:25;;;;;;;46.97;21.77;;;;;;;;;;5046492;28;20536;-80
2021/12/04 07:39:51;;;;;;;46.03;21.63;;;;;;;;;;5045499;28;20397;-80
2021/12/04 07:42:17;;;;;;;53.92;21.92;;;;;;;;;;5045859;28;20039;-79
2021/12/04 07:44:44;;;;;;;48.83;21.50;;;;;;;;;;5043716;28;20032;-79
2021/12/04 07:47:10;;;;;;;50.97;21.05;;;;;;;;;;5045473;28;20053;-79
2021/12/04 07:49:38;;;;;;;53.75;21.90;;;;;;;;;;5044827;28;20044;-81
2021/12/04 07:52:08;;;;;;;51.13;21.73;;;;;;;;;;5027682;28;20048;-80
2021/12/04 07:54:35;;;;;;;48.67;21.75;;;;;;;;;;5046834;28;20067;-81
2021/12/04 07:57:01;;;;;;;49.70;19.98;;;;;;;;;;5045468;28;20128;-80
2021/12/04 07:59:28;;;;;;;48.47;21.83;;;;;;;;;;5047398;28;20077;-80
2021/12/04 08:01:55;;;;;;;49.42;21.83;;;;;;;;;;5043783;28;20057;-81
2021/12/04 08:04:21;;;;;;;50.25;20.83;;;;;;;;;;5046586;28;20049;-81
2021/12/04 08:06:47;;;;;;;50.33;22.75;;;;;;;;;;5045833;28;20127;-81
2021/12/04 08:09:13;;;;;;;51.97;21.70;;;;;;;;;;5044881;28;20519;-79
2021/12/04 08:11:39;;;;;;;54.55;22.90;;;;;;;;;;5046737;28;20171;-81
2021/12/04 08:14:05;;;;;;;54.33;21.42;;;;;;;;;;5045915;28;20487;-80
2021/12/04 08:16:32;;;;;;;54.70;21.63;;;;;;;;;;5044732;28;20063;-80
2021/12/04 08:18:58;;;;;;;55.70;21.88;;;;;;;;;;5045761;28;20041;-81
2021/12/04 08:21:25;;;;;;;57.45;22.95;;;;;;;;;;5047231;28;20048;-82
2021/12/04 08:23:54;;;;;;;53.35;22.95;;;;;;;;;;5045858;28;20041;-82
2021/12/04 08:26:21;;;;;;;57.17;23.17;;;;;;;;;;5046786;28;20159;-82
2021/12/04 08:28:47;;;;;;;57.05;22.70;;;;;;;;;;5046688;28;20041;-84
2021/12/04 08:31:13;;;;;;;58.35;23.02;;;;;;;;;;5046524;28;20033;-82
2021/12/04 08:33:40;;;;;;;72.10;23.23;;;;;;;;;;5045647;28;20048;-82
2021/12/04 08:36:06;;;;;;;62.85;21.75;;;;;;;;;;5045782;28;20190;-86
2021/12/04 08:38:33;;;;;;;58.20;22.58;;;;;;;;;;5046935;28;20056;-80
2021/12/04 08:41:02;;;;;;;63.63;23.38;;;;;;;;;;5026939;28;20056;-81
2021/12/04 08:43:28;;;;;;;69.85;24.15;;;;;;;;;;5045978;28;20033;-80
2021/12/04 08:45:55;;;;;;;72.88;25.55;;;;;;;;;;5044396;28;20045;-80
2021/12/04 08:48:22;;;;;;;64.80;23.33;;;;;;;;;;5043203;28;20049;-80
2021/12/04 08:50:48;;;;;;;76.20;25.83;;;;;;;;;;5043390;28;20029;-81
2021/12/04 08:53:14;;;;;;;62.75;23.55;;;;;;;;;;5043702;28;20049;-82
2021/12/04 08:55:42;;;;;;;83.30;26.10;;;;;;;;;;5043844;28;20075;-79
2021/12/04 08:58:09;;;;;;;94.05;27.15;;;;;;;;;;5041450;28;20049;-79
2021/12/04 09:00:51;;;;;;;91.00;26.33;;;;;;;;;;5044522;28;20116;-79
2021/12/04 09:03:20;;;;;;;71.65;24.75;;;;;;;;;;5040673;28;20410;-79
2021/12/04 09:05:46;;;;;;;68.00;24.55;;;;;;;;;;5048401;28;20502;-80
2021/12/04 09:08:12;;;;;;;63.88;22.80;;;;;;;;;;5049952;28;20135;-80
2021/12/04 09:10:42;;;;;;;62.70;22.95;;;;;;;;;;5046544;28;20071;-81
2021/12/04 09:13:08;;;;;;;61.20;23.40;;;;;;;;;;5048597;28;20045;-80
2021/12/04 09:15:35;;;;;;;52.85;22.55;;;;;;;;;;5049313;28;20045;-80
2021/12/04 09:18:01;;;;;;;50.25;21.55;;;;;;;;;;5049498;28;20080;-78
2021/12/04 09:20:30;;;;;;;54.03;21.55;;;;;;;;;;5048019;28;20455;-79
2021/12/04 09:22:56;;;;;;;43.15;19.48;;;;;;;;;;5048807;28;20397;-79
2021/12/04 09:25:25;;;;;;;43.17;20.17;;;;;;;;;;5050239;28;20060;-80
2021/12/04 09:28:15;;;;;;;44.40;20.10;;;;;;;;;;5046619;28;20044;-79
2021/12/04 09:31:27;;;;;;;39.63;18.23;;;;;;;;;;5048632;28;20048;-79
2021/12/04 10:01:26;;;;;;;24.35;15.32;;;;;;;;;;5049866;28;20083;-79
2021/12/04 10:33:24;;;;;;;24.80;17.13;;;;;;;;;;5048210;28;20519;-79
2021/12/04 10:35:50;;;;;;;25.35;18.00;;;;;;;;;;5049374;28;20547;-80
2021/12/04 10:38:25;;;;;;;28.65;18.13;;;;;;;;;;5046938;28;20049;-81
2021/12/04 10:40:51;;;;;;;27.05;19.17;;;;;;;;;;5047739;28;20052;-81
2021/12/04 10:43:22;;;;;;;28.35;18.70;;;;;;;;;;5049081;28;20033;-79
2021/12/04 10:45:54;;;;;;;27.90;18.08;;;;;;;;;;5030488;28;20059;-80
2021/12/04 10:48:24;;;;;;;28.27;17.98;;;;;;;;;;5049346;28;20033;-81
2021/12/04 10:51:08;;;;;;;28.40;19.30;;;;;;;;;;5048072;28;20349;-81
2021/12/04 10:53:37;;;;;;;30.67;18.95;;;;;;;;;;5048824;28;20088;-80
2021/12/04 11:26:32;;;;;;;31.17;20.20;;;;;;;;;;5047025;28;20091;-80
2021/12/04 11:40:06;;;;;;;29.75;18.52;;;;;;;;;;5034414;28;20037;-83
2021/12/04 11:42:37;;;;;;;37.15;21.35;;;;;;;;;;5046811;28;20492;-79
2021/12/04 11:45:15;;;;;;;33.28;18.70;;;;;;;;;;5047583;28;20112;-79
2021/12/04 11:47:42;;;;;;;31.15;18.48;;;;;;;;;;5046937;28;20048;-80
2021/12/04 11:50:19;;;;;;;31.38;18.58;;;;;;;;;;5047003;28;20127;-79
2021/12/04 11:52:47;;;;;;;35.50;19.88;;;;;;;;;;5041795;28;20071;-81
2021/12/04 11:55:13;;;;;;;37.70;20.02;;;;;;;;;;5042790;28;20428;-81
2021/12/04 11:57:39;;;;;;;42.30;20.30;;;;;;;;;;5045938;28;20033;-80
2021/12/04 12:00:23;;;;;;;45.00;21.48;;;;;;;;;;5044765;28;20128;-80
2021/12/04 12:02:51;;;;;;;45.45;21.92;;;;;;;;;;5047832;28;20416;-79
2021/12/04 12:05:18;;;;;;;47.65;22.75;;;;;;;;;;5046426;28;20136;-80
2021/12/04 12:07:51;;;;;;;61.38;24.90;;;;;;;;;;5046438;28;20045;-79
2021/12/04 12:10:18;;;;;;;63.97;27.45;;;;;;;;;;5033730;28;20045;-79
2021/12/04 12:12:47;;;;;;;64.43;28.27;;;;;;;;;;5046411;28;20029;-81
2021/12/04 12:15:40;;;;;;;60.03;24.73;;;;;;;;;;5045895;28;20041;-80
2021/12/04 12:18:14;;;;;;;67.88;27.40;;;;;;;;;;5044678;28;20102;-80
2021/12/04 12:20:48;;;;;;;70.72;30.70;;;;;;;;;;5046518;28;20044;-78
2021/12/04 12:23:20;;;;;;;71.30;28.52;;;;;;;;;;5045819;28;20509;-79
2021/12/04 12:36:17;;;;;;;66.63;28.92;;;;;;;;;;5043889;28;20041;-80
2021/12/04 12:38:47;;;;;;;69.47;30.23;;;;;;;;;;5043861;28;20103;-80
2021/12/04 12:41:16;;;;;;;64.85;29.83;;;;;;;;;;5044273;28;20056;-79
2021/12/04 12:43:45;;;;;;;59.22;28.67;;;;;;;;;;5045024;28;20044;-80
2021/12/04 12:46:12;;;;;;;57.88;27.98;;;;;;;;;;5045711;28;20045;-80
2021/12/04 12:48:45;;;;;;;60.38;30.85;;;;;;;;;;5043492;28;20132;-78
2021/12/04 12:51:12;;;;;;;62.25;29.60;;;;;;;;;;5043149;28;20079;-79
2021/12/04 12:53:46;;;;;;;46.08;24.73;;;;;;;;;;5042066;28;20405;-80
2021/12/04 12:56:13;;;;;;;48.80;25.38;;;;;;;;;;5042742;28;20442;-80
2021/12/04 12:59:02;;;;;;;51.53;25.45;;;;;;;;;;5046391;28;20037;-79
2021/12/04 13:12:50;;;;;;;53.72;29.80;;;;;;;;;;5046587;28;20055;-78
2021/12/04 13:15:28;;;;;;;55.75;29.80;;;;;;;;;;5045084;28;20037;-80
2021/12/04 13:17:55;;;;;;;52.63;28.17;;;;;;;;;;5042417;28;20397;-76
2021/12/04 13:20:23;;;;;;;50.95;26.60;;;;;;;;;;5044222;28;20097;-77
2021/12/04 13:22:49;;;;;;;49.45;29.33;;;;;;;;;;5043879;28;20045;-79
2021/12/04 13:25:15;;;;;;;48.42;28.00;;;;;;;;;;5040815;28;20055;-78
2021/12/04 13:30:14;;;;;;;46.15;26.35;;;;;;;;;;5038513;28;20517;-82
2021/12/04 13:32:41;;;;;;;50.97;25.93;;;;;;;;;;5042438;28;20037;-79
2021/12/04 13:35:10;;;;;;;50.63;26.67;;;;;;;;;;5041542;28;20386;-81
2021/12/04 13:37:37;;;;;;;55.80;28.45;;;;;;;;;;5042997;28;20080;-78
2021/12/04 13:40:06;;;;;;;49.90;26.60;;;;;;;;;;5041731;28;20122;-78
2021/12/04 13:42:36;;;;;;;46.85;26.05;;;;;;;;;;5042400;28;20041;-80
2021/12/04 13:45:04;;;;;;;46.17;26.33;;;;;;;;;;5040759;28;20053;-78
2021/12/04 13:47:31;;;;;;;46.03;25.05;;;;;;;;;;5042118;28;20029;-80
2021/12/04 13:49:57;;;;;;;47.85;25.83;;;;;;;;;;5041215;28;20080;-80
2021/12/04 13:52:25;;;;;;;47.63;26.25;;;;;;;;;;5041351;28;20887;-78
2021/12/04 13:54:53;;;;;;;43.33;25.10;;;;;;;;;;5047287;28;20055;-83
2021/12/04 13:57:19;;;;;;;46.83;26.65;;;;;;;;;;5046637;28;20045;-79
2021/12/04 13:59:46;;;;;;;50.22;27.23;;;;;;;;;;5046742;28;20492;-78
2021/12/04 14:02:20;;;;;;;47.10;25.80;;;;;;;;;;5048370;28;20571;-81
2021/12/04 14:04:54;;;;;;;48.83;27.60;;;;;;;;;;5043301;28;20052;-79
2021/12/04 14:07:20;;;;;;;;;;;;;;;;;;5049377;28;20048;-83
2021/12/04 14:09:46;;;;;;;48.25;27.27;;;;;;;;;;5046749;28;19942;-78
2021/12/04 14:12:12;;;;;;;50.38;28.83;;;;;;;;;;5047264;28;20055;-78
2021/12/04 14:14:38;;;;;;;51.08;26.73;;;;;;;;;;5047956;28;20400;-82
2021/12/04 14:17:14;;;;;;;59.13;29.27;;;;;;;;;;5048013;28;20112;-78
2021/12/04 14:19:42;;;;;;;52.85;28.92;;;;;;;;;;5043393;28;20044;-80
2021/12/04 14:22:08;;;;;;;61.63;29.98;;;;;;;;;;5047209;28;20052;-78
2021/12/04 14:24:37;;;;;;;59.15;31.13;;;;;;;;;;5030166;28;20033;-78
2021/12/04 14:27:05;;;;;;;68.55;33.20;;;;;;;;;;5047454;28;20582;-77
2021/12/04 14:29:41;;;;;;;68.72;32.15;;;;;;;;;;5048248;28;20510;-80
2021/12/04 14:32:09;;;;;;;74.30;34.45;;;;;;;;;;5047450;28;20047;-82
2021/12/04 14:34:35;;;;;;;74.80;35.00;;;;;;;;;;5039864;28;20083;-80
2021/12/04 14:37:12;;;;;;;76.15;34.60;;;;;;;;;;5041857;28;20076;-78
2021/12/04 14:39:42;;;;;;;75.53;35.72;;;;;;;;;;5038494;28;20149;-78
2021/12/04 14:42:22;;;;;;;79.00;34.78;;;;;;;;;;5052720;28;20037;-79
2021/12/04 14:44:50;;;;;;;90.18;37.88;;;;;;;;;;5054811;28;20040;-78
2021/12/04 14:47:17;;;;;;;103.50;38.78;;;;;;;;;;5054573;28;20178;-78
2021/12/04 14:49:44;;;;;;;115.32;41.75;;;;;;;;;;5046176;28;20389;-78
2021/12/04 14:52:16;;;;;;;108.97;39.85;;;;;;;;;;5046830;28;20059;-85
2021/12/04 14:54:43;;;;;;;114.05;39.03;;;;;;;;;;5044361;28;20474;-81
2021/12/04 14:57:14;;;;;;;110.72;39.08;;;;;;;;;;5043917;28;20095;-82
2021/12/04 14:59:40;;;;;;;100.50;36.00;;;;;;;;;;5045668;28;20051;-86
2021/12/04 15:02:13;;;;;;;102.80;38.55;;;;;;;;;;5043383;28;20670;-79
2021/12/04 15:04:40;;;;;;;105.73;40.23;;;;;;;;;;5049107;28;20045;-77
2021/12/04 15:07:06;;;;;;;92.88;36.78;;;;;;;;;;5040330;28;20503;-79
2021/12/04 15:09:33;;;;;;;102.68;40.15;;;;;;;;;;5026706;28;20567;-79
2021/12/04 15:12:01;;;;;;;104.57;39.45;;;;;;;;;;5043015;28;20559;-81
2021/12/04 15:14:33;;;;;;;93.20;35.83;;;;;;;;;;5041529;28;20535;-81
2021/12/04 15:17:05;;;;;;;97.38;36.83;;;;;;;;;;5045101;28;20044;-80
2021/12/04 15:19:43;;;;;;;98.20;39.42;;;;;;;;;;5043685;28;20049;-80
2021/12/04 15:22:22;;;;;;;91.43;34.70;;;;;;;;;;5053896;28;20052;-78
2021/12/04 15:24:48;;;;;;;83.78;35.05;;;;;;;;;;5045143;28;20119;-82
2021/12/04 15:27:20;;;;;;;89.10;34.65;;;;;;;;;;5043145;28;20036;-80
2021/12/04 15:29:48;;;;;;;73.65;33.92;;;;;;;;;;5044276;28;20390;-77
2021/12/04 15:32:16;;;;;;;76.20;32.65;;;;;;;;;;5042291;28;20059;-78
2021/12/04 15:34:56;;;;;;;71.70;31.17;;;;;;;;;;5044052;28;20475;-79
2021/12/04 15:37:34;;;;;;;62.40;29.77;;;;;;;;;;5042550;28;20095;-76
2021/12/04 15:40:05;;;;;;;66.50;31.85;;;;;;;;;;5043975;28;20057;-77
2021/12/04 15:42:42;;;;;;;71.82;31.95;;;;;;;;;;5026311;28;20045;-76
2021/12/04 15:46:06;;;;;;;60.85;28.67;;;;;;;;;;5043630;28;20051;-76
2021/12/04 15:53:22;;;;;;;61.28;28.55;;;;;;;;;;5042532;28;20183;-77
2021/12/04 15:55:50;;;;;;;65.25;29.92;;;;;;;;;;5059121;28;20044;-80
2021/12/04 15:58:18;;;;;;;61.35;29.38;;;;;;;;;;5055486;28;20629;-80
2021/12/04 16:00:52;;;;;;;63.80;29.17;;;;;;;;;;5056906;28;20124;-78
2021/12/04 16:03:18;;;;;;;;;;;;;;;;;;5034342;28;20045;-77
2021/12/04 16:05:46;;;;;;;62.30;29.02;;;;;;;;;;5044614;28;19946;-79
2021/12/04 16:08:13;;;;;;;64.05;30.85;;;;;;;;;;5052021;28;20095;-77
2021/12/04 16:10:41;;;;;;;67.30;36.20;;;;;;;;;;5048437;28;20424;-80
2021/12/04 16:13:08;;;;;;;67.35;36.70;;;;;;;;;;5050236;28;20041;-80
2021/12/04 16:15:34;;;;;;;67.88;33.47;;;;;;;;;;5049451;28;20048;-81
2021/12/04 16:18:01;;;;;;;65.60;31.83;;;;;;;;;;5042129;28;20075;-82
2021/12/04 16:20:29;;;;;;;81.63;32.58;;;;;;;;;;5040131;28;20049;-80
2021/12/04 16:22:58;;;;;;;70.30;33.97;;;;;;;;;;5042908;28;20044;-78
2021/12/04 16:25:25;;;;;;;84.15;34.58;;;;;;;;;;5041607;28;20044;-78
2021/12/04 16:31:12;;;;;;;95.60;38.13;;;;;;;;;;5040093;28;20075;-79
2021/12/04 16:38:21;;;;;;;102.40;38.42;;;;;;;;;;5037997;28;20099;-79
2021/12/04 16:40:47;;;;;;;116.45;41.00;;;;;;;;;;5029099;28;20045;-79
2021/12/04 16:43:20;;;;;;;114.07;44.05;;;;;;;;;;5038855;28;20516;-80
2021/12/04 16:45:53;;;;;;;122.35;42.45;;;;;;;;;;5040694;28;20045;-79
2021/12/04 16:48:20;;;;;;;130.60;52.45;;;;;;;;;;5041644;28;20585;-79
2021/12/04 16:58:29;;;;;;;139.98;44.92;;;;;;;;;;5036936;28;20194;-80
2021/12/04 17:00:56;;;;;;;143.40;46.25;;;;;;;;;;5040273;28;20698;-79
2021/12/04 17:03:23;;;;;;;152.25;48.75;;;;;;;;;;5038831;28;20059;-80
2021/12/04 17:05:51;;;;;;;165.20;49.03;;;;;;;;;;5038508;28;20451;-82
2021/12/04 17:08:17;;;;;;;132.57;44.88;;;;;;;;;;5038234;28;20455;-79
2021/12/04 17:10:43;;;;;;;143.98;44.70;;;;;;;;;;5037908;28;20060;-84
2021/12/04 17:13:09;;;;;;;153.63;48.72;;;;;;;;;;5038330;28;20488;-81
2021/12/04 17:15:38;;;;;;;132.23;43.65;;;;;;;;;;5039327;28;20052;-83
2021/12/04 17:18:09;;;;;;;131.98;45.60;;;;;;;;;;5056957;28;20091;-84
2021/12/04 17:20:35;;;;;;;114.72;41.25;;;;;;;;;;5039985;28;20053;-84
2021/12/04 17:23:01;;;;;;;108.40;40.72;;;;;;;;;;5039942;28;20041;-82
2021/12/04 17:25:28;;;;;;;105.07;39.85;;;;;;;;;;5041477;28;20120;-87
2021/12/04 17:27:54;;;;;;;103.20;39.38;;;;;;;;;;5043693;28;20068;-88
2021/12/04 17:30:20;;;;;;;97.32;39.13;;;;;;;;;;5043884;28;20072;-80
2021/12/04 17:32:46;;;;;;;89.47;39.63;;;;;;;;;;5042763;28;20102;-82
2021/12/04 17:35:15;;;;;;;88.22;37.70;;;;;;;;;;5042095;28;20508;-84
2021/12/04 17:37:41;;;;;;;95.07;39.10;;;;;;;;;;5041567;28;20045;-81
2021/12/04 17:40:07;;;;;;;97.60;39.50;;;;;;;;;;5042009;28;20075;-83
2021/12/04 17:42:35;;;;;;;94.30;39.28;;;;;;;;;;5039682;28;20037;-81
2021/12/04 17:45:01;;;;;;;95.82;39.08;;;;;;;;;;5043077;28;20079;-80
2021/12/04 17:47:31;;;;;;;87.32;37.47;;;;;;;;;;5040717;28;20056;-81
2021/12/04 17:49:57;;;;;;;87.35;38.28;;;;;;;;;;5043206;28;20049;-80
2021/12/04 17:52:23;;;;;;;84.60;35.70;;;;;;;;;;5044311;28;20098;-85
2021/12/04 17:54:49;;;;;;;82.82;37.92;;;;;;;;;;5043119;28;20056;-83